Kilbirnie, United Kingdom
Current Conditions -  °F | °C
As of 10:20 AM on Sunday 25 Jan 2015 (Local Time) from EGPF Reporting Station
Light Rain Light Rain  
Wind Chill:   Ceiling: 700
Heat Index:   Visibility: 2.3mi
Dew Point:   Wind: 17mph
Humidity: 93%   Direction: 220°SW
Pressure: 30.12"   Gusts: NA
Location:  55.75°N, 4.69°W
Report Text: EGPF 251020Z AUTO 22015KT 3700 -RA OVC007 07/06 Q1020
Loading
Personal Weather Stations






























Interactive Weather Map New forecast layout! Learn more

10-Day Weather Forecast

Advertisements
Track Severe Weather on mobile